Tropical Cyclones
[Index]
Main Index Home Page Stock Weather Photos Extreme Storms Discussion Storm News and Storm Chasing Reports Tropical Cyclones / Hurricanes / Typhoons Weather Data and Links Wild Fires / Bushfires Weather Observation Techniques Weather Picture Catalogue Tornado Pictures and Reports Stock Video Footage and DVDs for sale
Season 1954-1955 Tropical Cyclone 195455_09 Track Map
Season 1954-1955 Summaries: [BoM-AU] [JTWC-AU] [JTWC-SIO] [JTWC-SPAC] [JTWC-SH]
<<- Previous TC | BoM 1954-1955 Season | Next TC ->>

click for intensity scale information  Lat/long Grid: Show Hide

 Date Labels: Show Hide

Bureau of Meteorology Tropical Cyclone Data

Name: 195455_09
Number: 263 / 195455_09

21 Mar 1955 23:00 UTC to 05 Apr 1955 23:00 UTC

    date/time    lat    long    hPa   cat  kts
1955-03-21 23   11.0   164.0   1002                     
1955-03-22 23   11.0   163.5                            
1955-03-23 23   11.0   160.0   1001                     
1955-03-24 23   14.7   157.1    996                     
1955-03-25 23   19.9   155.1    992    1                
1955-03-26 23   23.9   152.7    985    2                
1955-03-27 05   24.5   152.0    991    1                
1955-03-27 14   25.0   151.5    995    1                
1955-03-27 23   26.1   152.2   1001                     
1955-03-28 08   27.0   153.1   1002                     
1955-03-28 20   28.0   155.1   1002                     
1955-03-28 23   28.2   157.0   1002                     
1955-03-29 23   26.3   161.6   1006                     
1955-03-30 23   23.2   165.0    998                     
1955-03-31 02   23.0   165.5    998                     
1955-03-31 23   23.0   164.8    993    1                
1955-04-01 23   23.0   162.5   1000                     
1955-04-02 06   23.0   161.0   1000                     
1955-04-02 23   23.8   158.7   1000                     
1955-04-03 23   24.8   157.3   1002                     
1955-04-04 23   25.1   156.8   1002                     
1955-04-05 11   27.0   156.0   1003                     
1955-04-05 23   30.0   157.6   1003                     
Winds are 10-min average.

Tropical cyclone tracks developed by Michael Bath using data from the Bureau of Meteorology and Google Maps.


[Australian Severe Weather index] [Copyright Notice] [Email Contacts] [Search This Site] [Privacy Policy]
Document: tropical_cyclone_195455_09.htm Updated: 30 May 2013